Time;durP1;ratioP1;P1;durP2;ratioP2;P2;SDS_P1;SDS_P2;PMS_P1;PMS_P2;Temp;Humidity;BMP_temperature;BMP_pressure;BME280_temperature;BME280_humidity;BME280_pressure;Samples;Min_cycle;Max_cycle;Signal;HPM_P1;HPM_P2
2022/02/15 00:02:22;;;;;;;6.63;3.88;;;;;;;;;;7325885;19;153972;-15
2022/02/15 00:04:53;;;;;;;5.88;4.20;;;;;;;;;;7329942;19;153578;-12
2022/02/15 13:29:36;;;;;;;0.88;0.88;;;;;;;;;;7370285;19;132479;-16
2022/02/15 13:32:09;;;;;;;0.80;0.80;;;;;;;;;;7364707;19;153627;-15
2022/02/15 13:34:41;;;;;;;0.95;0.75;;;;;;;;;;7364608;19;161916;-15
2022/02/15 13:37:14;;;;;;;1.35;0.70;;;;;;;;;;7366813;19;162369;-16
2022/02/15 13:39:46;;;;;;;1.17;0.82;;;;;;;;;;7363708;19;153949;-15
2022/02/15 13:42:18;;;;;;;1.02;0.70;;;;;;;;;;7364803;19;153655;-15
2022/02/15 13:44:52;;;;;;;0.93;0.75;;;;;;;;;;7364179;19;161932;-18
2022/02/15 13:47:26;;;;;;;0.65;0.65;;;;;;;;;;7363713;19;162320;-14
2022/02/15 13:49:58;;;;;;;0.70;0.70;;;;;;;;;;7367303;19;153848;-15
2022/02/15 13:52:30;;;;;;;1.90;0.80;;;;;;;;;;7364410;19;153836;-14
2022/02/15 13:55:01;;;;;;;0.60;0.60;;;;;;;;;;7362743;19;161532;-13
2022/02/15 13:57:33;;;;;;;0.70;0.70;;;;;;;;;;7363764;19;162588;-15
2022/02/15 14:00:08;;;;;;;0.70;0.70;;;;;;;;;;7364162;19;154189;-19
2022/02/15 14:02:42;;;;;;;0.70;0.70;;;;;;;;;;7364063;19;153788;-14
2022/02/15 14:05:16;;;;;;;1.03;0.80;;;;;;;;;;7366718;19;161788;-16
2022/02/15 14:07:49;;;;;;;0.85;0.60;;;;;;;;;;7362590;19;162504;-15
2022/02/15 14:10:20;;;;;;;0.50;0.50;;;;;;;;;;7363677;19;153941;-14
2022/02/15 14:12:51;;;;;;;0.73;0.70;;;;;;;;;;7362690;19;153564;-14
2022/02/15 14:15:28;;;;;;;2.38;0.88;;;;;;;;;;7362553;19;161799;-14
2022/02/15 14:18:02;;;;;;;0.60;0.60;;;;;;;;;;7365663;19;162496;-14
2022/02/15 14:20:33;;;;;;;1.10;1.00;;;;;;;;;;7366149;19;153943;-13
2022/02/15 14:23:05;;;;;;;0.50;0.50;;;;;;;;;;7362325;19;153495;-14
2022/02/15 14:25:36;;;;;;;1.92;0.95;;;;;;;;;;7366782;19;162035;-14
2022/02/15 14:28:08;;;;;;;0.80;0.80;;;;;;;;;;7361283;19;162396;-14
2022/02/15 14:30:44;;;;;;;0.75;0.70;;;;;;;;;;7333132;19;153933;-15
2022/02/15 14:33:16;;;;;;;0.50;0.50;;;;;;;;;;7337492;19;153650;-16
2022/02/15 14:35:48;;;;;;;1.30;0.70;;;;;;;;;;7338059;19;161882;-15
2022/02/15 14:38:23;;;;;;;1.55;1.02;;;;;;;;;;7333282;19;162385;-16
2022/02/15 14:40:58;;;;;;;0.50;0.50;;;;;;;;;;7338917;19;154026;-15
2022/02/15 14:43:29;;;;;;;1.73;0.80;;;;;;;;;;7333793;19;153681;-15
2022/02/15 14:46:05;;;;;;;0.70;0.70;;;;;;;;;;7333594;19;162015;-14
2022/02/15 14:48:36;;;;;;;3.63;0.70;;;;;;;;;;7332771;19;162492;-14
2022/02/15 14:51:07;;;;;;;1.77;1.00;;;;;;;;;;7334143;19;154225;-15
2022/02/15 14:53:38;;;;;;;2.45;0.70;;;;;;;;;;7334051;19;153604;-14
2022/02/15 14:56:10;;;;;;;0.77;0.77;;;;;;;;;;7333489;19;161794;-15
2022/02/15 14:58:42;;;;;;;5.95;0.75;;;;;;;;;;7333454;19;162550;-15
2022/02/15 15:01:16;;;;;;;1.27;0.80;;;;;;;;;;7333944;19;154098;-15
2022/02/15 15:03:48;;;;;;;2.78;0.60;;;;;;;;;;7333759;19;153508;-15
2022/02/15 15:06:20;;;;;;;3.60;1.02;;;;;;;;;;7332966;19;161831;-14
2022/02/15 15:08:54;;;;;;;1.45;0.70;;;;;;;;;;7332016;19;162520;-15
2022/02/15 15:11:25;;;;;;;0.75;0.70;;;;;;;;;;7333565;19;154097;-15
2022/02/15 15:13:57;;;;;;;0.95;0.80;;;;;;;;;;7333434;19;153782;-14
2022/02/15 15:16:31;;;;;;;0.57;0.57;;;;;;;;;;7332966;19;162076;-15
2022/02/15 15:19:05;;;;;;;1.73;0.75;;;;;;;;;;7332825;19;162158;-15
2022/02/15 15:21:36;;;;;;;0.60;0.60;;;;;;;;;;7333152;19;153719;-15
2022/02/15 15:24:11;;;;;;;1.20;0.80;;;;;;;;;;7331967;19;153581;-15
2022/02/15 15:26:43;;;;;;;0.70;0.70;;;;;;;;;;7332390;19;161840;-15
2022/02/15 15:29:18;;;;;;;1.00;0.60;;;;;;;;;;7328576;19;162139;-15
2022/02/15 15:31:53;;;;;;;0.63;0.60;;;;;;;;;;7332713;19;154248;-14
2022/02/15 15:34:24;;;;;;;0.70;0.70;;;;;;;;;;7332695;19;153512;-15
2022/02/15 15:36:57;;;;;;;0.70;0.70;;;;;;;;;;7332335;19;161974;-15
2022/02/15 15:39:28;;;;;;;1.33;0.85;;;;;;;;;;7332397;19;162722;-15
2022/02/15 15:42:02;;;;;;;0.75;0.75;;;;;;;;;;7329185;19;153904;-15
2022/02/15 15:44:35;;;;;;;1.00;0.55;;;;;;;;;;7331400;19;153381;-14
2022/02/15 15:47:11;;;;;;;0.60;0.60;;;;;;;;;;7332006;19;162004;-14
2022/02/15 15:49:44;;;;;;;0.77;0.60;;;;;;;;;;7330623;19;162601;-13
2022/02/15 15:52:15;;;;;;;0.60;0.60;;;;;;;;;;7332300;19;153936;-14
2022/02/15 15:54:47;;;;;;;0.65;0.50;;;;;;;;;;7332393;19;153574;-14
2022/02/15 15:57:19;;;;;;;0.70;0.60;;;;;;;;;;7330798;19;161970;-13
2022/02/15 15:59:52;;;;;;;1.20;0.63;;;;;;;;;;7331983;19;162335;-14
2022/02/15 16:02:44;;;;;;;0.60;0.60;;;;;;;;;;7332187;19;154183;-14
2022/02/15 16:05:16;;;;;;;0.50;0.50;;;;;;;;;;7331957;19;153670;-13
2022/02/15 16:07:49;;;;;;;0.90;0.90;;;;;;;;;;7331613;19;161905;-14
2022/02/15 16:10:21;;;;;;;0.60;0.60;;;;;;;;;;7329541;19;162524;-14
2022/02/15 16:12:52;;;;;;;1.00;0.80;;;;;;;;;;7331955;19;153919;-13
2022/02/15 16:15:24;;;;;;;1.52;0.65;;;;;;;;;;7331942;19;153498;-17
2022/02/15 16:17:58;;;;;;;1.02;0.75;;;;;;;;;;7331538;19;162078;-14
2022/02/15 16:20:29;;;;;;;0.98;0.70;;;;;;;;;;7331417;19;162485;-14
2022/02/15 16:23:01;;;;;;;0.50;0.50;;;;;;;;;;7331712;19;154016;-14
2022/02/15 16:25:35;;;;;;;0.60;0.57;;;;;;;;;;7331520;19;153488;-15
2022/02/15 16:28:08;;;;;;;0.50;0.50;;;;;;;;;;7329598;19;161653;-14
2022/02/15 16:30:53;;;;;;;1.03;0.80;;;;;;;;;;7329066;19;162406;-16
2022/02/15 16:33:29;;;;;;;0.68;0.60;;;;;;;;;;7331355;19;154126;-14
2022/02/15 16:36:00;;;;;;;2.13;0.60;;;;;;;;;;7331143;19;153709;-15
2022/02/15 16:38:32;;;;;;;1.10;0.75;;;;;;;;;;7330880;19;161804;-14
2022/02/15 16:41:03;;;;;;;0.60;0.60;;;;;;;;;;7330621;19;162469;-14
2022/02/15 16:43:34;;;;;;;1.65;0.80;;;;;;;;;;7329963;19;154027;-13
2022/02/15 16:46:06;;;;;;;0.82;0.68;;;;;;;;;;7330655;19;153505;-14
2022/02/15 16:48:40;;;;;;;1.42;1.33;;;;;;;;;;7330318;19;162164;-14
2022/02/15 16:51:13;;;;;;;0.85;0.70;;;;;;;;;;7327482;19;162345;-14
2022/02/15 16:53:44;;;;;;;0.60;0.60;;;;;;;;;;7329817;19;154186;-14
2022/02/15 16:56:15;;;;;;;0.63;0.60;;;;;;;;;;7330056;19;153563;-14
2022/02/15 16:58:47;;;;;;;1.00;0.77;;;;;;;;;;7329885;19;161934;-14
2022/02/15 17:01:19;;;;;;;0.68;0.68;;;;;;;;;;7329758;19;163032;-14
2022/02/15 17:03:53;;;;;;;0.95;0.88;;;;;;;;;;7328860;19;154185;-15
2022/02/15 17:06:24;;;;;;;0.60;0.60;;;;;;;;;;7328612;19;153563;-14
2022/02/15 17:08:56;;;;;;;1.27;0.68;;;;;;;;;;7329509;19;161937;-14
2022/02/15 17:11:27;;;;;;;1.25;0.50;;;;;;;;;;7327112;19;162389;-14
2022/02/15 17:13:58;;;;;;;1.45;0.57;;;;;;;;;;7329978;19;154109;-14
2022/02/15 17:16:30;;;;;;;1.25;0.90;;;;;;;;;;7329736;19;153592;-14
2022/02/15 17:19:05;;;;;;;1.35;0.60;;;;;;;;;;7329535;19;161948;-13
2022/02/15 17:21:37;;;;;;;0.50;0.50;;;;;;;;;;7329070;19;162659;-14
2022/02/15 17:24:08;;;;;;;1.48;0.82;;;;;;;;;;7329623;19;153932;-14
2022/02/15 17:26:41;;;;;;;2.00;0.52;;;;;;;;;;7329258;19;153594;-14
2022/02/15 17:29:12;;;;;;;0.90;0.80;;;;;;;;;;7326259;19;162109;-14
2022/02/15 17:31:47;;;;;;;0.75;0.75;;;;;;;;;;7326386;19;162390;-14
2022/02/15 17:34:20;;;;;;;0.70;0.70;;;;;;;;;;7329211;19;154146;-14
2022/02/15 17:36:52;;;;;;;0.93;0.88;;;;;;;;;;7327772;19;153638;-13
2022/02/15 17:39:26;;;;;;;1.77;0.65;;;;;;;;;;7328727;19;161965;-13
2022/02/15 17:41:57;;;;;;;1.48;0.70;;;;;;;;;;7328432;19;162610;-14
2022/02/15 17:44:29;;;;;;;0.65;0.65;;;;;;;;;;7328562;19;154277;-14
2022/02/15 17:47:00;;;;;;;1.65;0.63;;;;;;;;;;7328640;19;153617;-14
2022/02/15 17:49:34;;;;;;;1.65;0.73;;;;;;;;;;7328248;19;161842;-15
2022/02/15 17:52:06;;;;;;;3.63;1.00;;;;;;;;;;7325195;19;162376;-14
2022/02/15 17:54:40;;;;;;;3.03;0.73;;;;;;;;;;7328418;19;153979;-14
2022/02/15 17:57:11;;;;;;;2.78;0.80;;;;;;;;;;7327967;19;153446;-14
2022/02/15 17:59:42;;;;;;;2.80;0.90;;;;;;;;;;7326851;19;161951;-14
2022/02/15 18:02:14;;;;;;;3.03;1.00;;;;;;;;;;7327865;19;162350;-14
2022/02/15 18:04:48;;;;;;;3.75;1.00;;;;;;;;;;7330428;19;153939;-17
2022/02/15 18:07:20;;;;;;;1.23;0.80;;;;;;;;;;7335098;19;153565;-14
2022/02/15 18:09:51;;;;;;;2.78;0.63;;;;;;;;;;7334605;19;161957;-14
2022/02/15 18:12:23;;;;;;;0.80;0.80;;;;;;;;;;7332117;19;162339;-13
2022/02/15 18:14:55;;;;;;;0.90;0.90;;;;;;;;;;7334622;19;154019;-14
2022/02/15 18:17:26;;;;;;;0.80;0.80;;;;;;;;;;7334604;19;153521;-14
2022/02/15 18:20:02;;;;;;;1.55;0.93;;;;;;;;;;7334360;19;162161;-14
2022/02/15 18:22:36;;;;;;;0.98;0.88;;;;;;;;;;7334361;19;162394;-13
2022/02/15 18:25:09;;;;;;;2.65;0.80;;;;;;;;;;7334813;19;154210;-15
2022/02/15 18:27:40;;;;;;;3.30;0.73;;;;;;;;;;7333716;19;153506;-15
2022/02/15 18:30:12;;;;;;;1.00;0.90;;;;;;;;;;7333942;19;161941;-14
2022/02/15 18:32:44;;;;;;;0.70;0.70;;;;;;;;;;7333951;19;162588;-15
2022/02/15 18:35:18;;;;;;;0.70;0.70;;;;;;;;;;7334529;19;154096;-15
2022/02/15 18:37:50;;;;;;;1.00;0.90;;;;;;;;;;7334156;19;153571;-15
2022/02/15 18:40:21;;;;;;;0.80;0.80;;;;;;;;;;7333638;19;161714;-15
2022/02/15 18:42:53;;;;;;;0.75;0.75;;;;;;;;;;7333551;19;162351;-15
2022/02/15 18:45:26;;;;;;;1.10;0.70;;;;;;;;;;7333858;19;154009;-19
2022/02/15 18:47:58;;;;;;;0.88;0.88;;;;;;;;;;7333733;19;153757;-14
2022/02/15 18:50:31;;;;;;;0.57;0.57;;;;;;;;;;7333346;19;161767;-15
2022/02/15 18:53:03;;;;;;;2.25;0.70;;;;;;;;;;7333507;19;162333;-16
2022/02/15 18:55:36;;;;;;;0.82;0.82;;;;;;;;;;7333435;19;154237;-16
2022/02/15 18:58:09;;;;;;;4.10;1.05;;;;;;;;;;7333659;19;153557;-15
2022/02/15 19:00:42;;;;;;;0.98;0.80;;;;;;;;;;7332877;19;162006;-16
2022/02/15 19:03:22;;;;;;;1.23;0.70;;;;;;;;;;7332691;19;162772;-16
2022/02/15 19:05:55;;;;;;;1.73;0.68;;;;;;;;;;7332128;19;153992;-14
2022/02/15 19:08:27;;;;;;;0.80;0.80;;;;;;;;;;7331933;19;153525;-15
2022/02/15 19:11:00;;;;;;;0.70;0.70;;;;;;;;;;7332194;19;161810;-15
2022/02/15 19:13:31;;;;;;;;;;;;;;;;;;7333330;19;162466;-15
2022/02/15 19:16:02;;;;;;;1.65;1.20;;;;;;;;;;7332759;19;154176;-15
2022/02/15 19:18:33;;;;;;;1.45;1.02;;;;;;;;;;7332824;19;153487;-16
2022/02/15 19:21:09;;;;;;;0.98;0.88;;;;;;;;;;7332905;19;161757;-15
2022/02/15 19:23:40;;;;;;;0.93;0.93;;;;;;;;;;7332690;19;162476;-15
2022/02/15 19:26:12;;;;;;;2.40;1.02;;;;;;;;;;7332820;19;153999;-16
2022/02/15 19:28:43;;;;;;;1.88;0.80;;;;;;;;;;7332120;19;153477;-16
2022/02/15 19:31:14;;;;;;;0.80;0.80;;;;;;;;;;7331872;19;161828;-16
2022/02/15 19:33:46;;;;;;;1.08;0.90;;;;;;;;;;7331960;19;162998;-14
2022/02/15 19:36:20;;;;;;;0.98;0.65;;;;;;;;;;7332160;19;153969;-16
2022/02/15 19:38:51;;;;;;;4.15;1.08;;;;;;;;;;7332115;19;153651;-14
2022/02/15 19:41:28;;;;;;;1.15;0.82;;;;;;;;;;7331773;19;162372;-14
2022/02/15 19:44:02;;;;;;;1.77;0.80;;;;;;;;;;7333855;19;162513;-13
2022/02/15 19:46:35;;;;;;;1.27;0.70;;;;;;;;;;7334569;19;153979;-14
2022/02/15 19:49:10;;;;;;;0.80;0.80;;;;;;;;;;7335517;19;153589;-13
2022/02/15 19:51:45;;;;;;;1.02;0.75;;;;;;;;;;7330783;19;161860;-14
2022/02/15 19:54:18;;;;;;;1.58;1.05;;;;;;;;;;7331409;19;162380;-14
2022/02/15 19:56:49;;;;;;;1.38;1.00;;;;;;;;;;7331499;19;154280;-14
2022/02/15 19:59:21;;;;;;;2.38;1.30;;;;;;;;;;7331762;19;153605;-15
2022/02/15 20:01:53;;;;;;;1.00;1.00;;;;;;;;;;7331049;19;161831;-14
2022/02/15 20:04:25;;;;;;;1.48;0.90;;;;;;;;;;7334143;19;162434;-14
2022/02/15 20:06:58;;;;;;;1.48;1.17;;;;;;;;;;7334988;19;154088;-13
2022/02/15 20:09:31;;;;;;;3.55;1.17;;;;;;;;;;7331744;19;153522;-17
2022/02/15 20:12:02;;;;;;;;;;;;;;;;;;7334481;19;161988;-13
2022/02/15 20:14:36;;;;;;;10.80;1.88;;;;;;;;;;7330658;19;162858;-15
2022/02/15 20:17:08;;;;;;;5.20;2.55;;;;;;;;;;7331134;19;154203;-16
2022/02/15 20:19:40;;;;;;;16.85;4.40;;;;;;;;;;7331133;19;153837;-14
2022/02/15 20:22:14;;;;;;;23.65;8.93;;;;;;;;;;7332413;19;161736;-14
2022/02/15 20:24:48;;;;;;;47.88;19.60;;;;;;;;;;7334607;19;162345;-14
2022/02/15 20:27:19;;;;;;;41.55;14.73;;;;;;;;;;7329735;19;154241;-14
2022/02/15 20:29:50;;;;;;;30.25;10.35;;;;;;;;;;7334418;19;153620;-15
2022/02/15 20:32:23;;;;;;;35.25;11.98;;;;;;;;;;7330605;19;161885;-15
2022/02/15 20:34:55;;;;;;;33.63;13.60;;;;;;;;;;7333675;19;162416;-15
2022/02/15 20:37:29;;;;;;;36.60;17.30;;;;;;;;;;7333384;19;153981;-15
2022/02/15 20:40:01;;;;;;;46.80;17.52;;;;;;;;;;7333096;19;153898;-15
2022/02/15 20:42:32;;;;;;;41.35;18.05;;;;;;;;;;7332863;19;161798;-16
2022/02/15 20:45:05;;;;;;;45.67;18.13;;;;;;;;;;7333027;19;162395;-13
2022/02/15 20:47:37;;;;;;;42.47;17.85;;;;;;;;;;7330125;19;153937;-15
2022/02/15 20:50:11;;;;;;;41.65;17.35;;;;;;;;;;7329959;19;153638;-15
2022/02/15 20:52:45;;;;;;;37.60;17.98;;;;;;;;;;7328782;19;161814;-15
2022/02/15 20:55:17;;;;;;;37.08;16.95;;;;;;;;;;7329748;19;162516;-15
2022/02/15 20:57:51;;;;;;;37.83;17.70;;;;;;;;;;7330273;19;154261;-21
2022/02/15 21:00:22;;;;;;;36.95;16.20;;;;;;;;;;7334010;19;153564;-16
2022/02/15 21:02:54;;;;;;;42.28;17.25;;;;;;;;;;7329608;19;161790;-15
2022/02/15 21:05:26;;;;;;;39.38;17.20;;;;;;;;;;7328284;19;162487;-15
2022/02/15 21:08:00;;;;;;;67.70;31.05;;;;;;;;;;7329381;19;154287;-15
2022/02/15 21:10:33;;;;;;;158.07;72.10;;;;;;;;;;7331704;19;153613;-19
2022/02/15 21:13:05;;;;;;;86.35;41.03;;;;;;;;;;7330215;19;161797;-14
2022/02/15 21:15:36;;;;;;;70.30;32.25;;;;;;;;;;7327537;19;162411;-15
2022/02/15 21:18:11;;;;;;;53.28;23.35;;;;;;;;;;7331054;19;153928;-15
2022/02/15 21:20:42;;;;;;;51.92;23.70;;;;;;;;;;7332044;19;153805;-15
2022/02/15 21:23:16;;;;;;;51.22;23.23;;;;;;;;;;7328396;19;161861;-16
2022/02/15 21:25:48;;;;;;;53.78;22.33;;;;;;;;;;7328374;19;162047;-13
2022/02/15 21:28:23;;;;;;;57.50;27.63;;;;;;;;;;7330205;19;153972;-14
2022/02/15 21:30:54;;;;;;;58.53;27.02;;;;;;;;;;7331488;19;153407;-14
2022/02/15 21:33:26;;;;;;;56.33;25.45;;;;;;;;;;7327320;19;162172;-13
2022/02/15 21:35:58;;;;;;;44.80;22.30;;;;;;;;;;7331824;19;162161;-14
2022/02/15 21:38:32;;;;;;;50.47;23.58;;;;;;;;;;7328620;19;153997;-14
2022/02/15 21:41:04;;;;;;;124.68;59.15;;;;;;;;;;7335338;19;153706;-14
2022/02/15 21:43:36;;;;;;;132.30;63.72;;;;;;;;;;7337735;19;161751;-14
2022/02/15 21:46:10;;;;;;;124.72;59.05;;;;;;;;;;7334589;19;162374;-15
2022/02/15 21:48:41;;;;;;;121.22;55.40;;;;;;;;;;7335251;19;153973;-15
2022/02/15 21:51:13;;;;;;;108.10;54.13;;;;;;;;;;7334441;19;153665;-15
2022/02/15 21:53:47;;;;;;;101.40;51.08;;;;;;;;;;7333264;19;162020;-26
2022/02/15 21:56:18;;;;;;;105.35;50.33;;;;;;;;;;7334541;19;162458;-15
2022/02/15 21:58:50;;;;;;;98.78;51.00;;;;;;;;;;7337007;19;153956;-21
2022/02/15 22:01:22;;;;;;;95.30;47.67;;;;;;;;;;7336407;19;153507;-15
2022/02/15 22:03:53;;;;;;;98.88;48.80;;;;;;;;;;7336645;19;161774;-15
2022/02/15 22:06:25;;;;;;;88.63;45.42;;;;;;;;;;7332927;19;162944;-15
2022/02/15 22:08:59;;;;;;;86.45;44.65;;;;;;;;;;7335610;19;153968;-15
2022/02/15 22:11:31;;;;;;;90.00;44.55;;;;;;;;;;7335801;19;153761;-15
2022/02/15 22:14:03;;;;;;;83.95;41.22;;;;;;;;;;7333222;19;161863;-15
2022/02/15 22:16:35;;;;;;;83.20;43.58;;;;;;;;;;7334308;19;162611;-15
2022/02/15 22:19:08;;;;;;;85.18;42.78;;;;;;;;;;7334411;19;153895;-17
2022/02/15 22:21:39;;;;;;;72.80;39.88;;;;;;;;;;7334680;19;154153;-15
2022/02/15 22:24:13;;;;;;;76.97;40.92;;;;;;;;;;7336503;19;161945;-15
2022/02/15 22:26:45;;;;;;;79.20;40.70;;;;;;;;;;7332899;19;162588;-15
2022/02/15 22:29:16;;;;;;;85.57;41.28;;;;;;;;;;7331766;19;154017;-15
2022/02/15 22:31:48;;;;;;;80.78;41.00;;;;;;;;;;7333807;19;153896;-15
2022/02/15 22:34:21;;;;;;;78.85;39.60;;;;;;;;;;7330228;19;161996;-15
2022/02/15 22:36:52;;;;;;;;;;;;;;;;;;7333952;19;162057;-15
2022/02/15 22:39:26;;;;;;;75.55;39.42;;;;;;;;;;7335070;19;154498;-15
2022/02/15 22:41:58;;;;;;;75.80;38.80;;;;;;;;;;7335843;19;154122;-15
2022/02/15 22:44:29;;;;;;;77.75;40.40;;;;;;;;;;7336164;19;161945;-16
2022/02/15 22:47:01;;;;;;;74.25;38.10;;;;;;;;;;7337489;19;162723;-14
2022/02/15 22:49:44;;;;;;;70.65;36.22;;;;;;;;;;7334456;19;153924;-15
2022/02/15 22:52:19;;;;;;;74.95;38.47;;;;;;;;;;7333463;19;153686;-15
2022/02/15 22:54:54;;;;;;;71.63;37.42;;;;;;;;;;7334022;19;161847;-15
2022/02/15 22:57:29;;;;;;;74.15;38.25;;;;;;;;;;7334782;19;162373;-15
2022/02/15 23:00:00;;;;;;;72.38;37.42;;;;;;;;;;7337418;19;154244;-15
2022/02/15 23:02:32;;;;;;;72.90;38.80;;;;;;;;;;7333015;19;153498;-15
2022/02/15 23:18:44;;;;;;;64.68;34.92;;;;;;;;;;7332379;19;162375;-14
2022/02/15 23:21:17;;;;;;;67.53;36.58;;;;;;;;;;7332601;19;154266;-15
2022/02/15 23:23:48;;;;;;;64.70;33.53;;;;;;;;;;7331930;19;153792;-15
2022/02/15 23:26:22;;;;;;;60.20;36.17;;;;;;;;;;7332448;19;162072;-15
2022/02/15 23:28:54;;;;;;;66.15;34.38;;;;;;;;;;7329444;19;162115;-15
2022/02/15 23:31:25;;;;;;;62.78;33.22;;;;;;;;;;7330651;19;154345;-15
2022/02/15 23:33:57;;;;;;;58.80;33.20;;;;;;;;;;7334270;19;153848;-15
2022/02/15 23:36:28;;;;;;;59.92;33.78;;;;;;;;;;7334438;19;162017;-15
2022/02/15 23:39:00;;;;;;;59.22;33.28;;;;;;;;;;7332286;19;163788;-14
2022/02/15 23:41:34;;;;;;;61.40;33.58;;;;;;;;;;7330997;19;154103;-14
2022/02/15 23:44:06;;;;;;;61.95;35.95;;;;;;;;;;7332169;19;153595;-14
2022/02/15 23:46:38;;;;;;;58.53;33.50;;;;;;;;;;7334038;19;162463;-16
2022/02/15 23:49:10;;;;;;;56.70;32.17;;;;;;;;;;7332179;19;162372;-15
2022/02/15 23:51:42;;;;;;;63.17;34.05;;;;;;;;;;7331892;19;154453;-15
2022/02/15 23:54:13;;;;;;;58.30;33.03;;;;;;;;;;7329804;19;153761;-15
2022/02/15 23:56:47;;;;;;;60.28;31.02;;;;;;;;;;7329916;19;162811;-15
2022/02/15 23:59:19;;;;;;;60.45;32.20;;;;;;;;;;7331333;19;163292;-16
